createdAt,value
2018-04-27T00:00:28.225Z,2.40
2018-04-27T00:01:26.439Z,2.50
2018-04-27T00:02:29.232Z,2.50
2018-04-27T00:03:26.822Z,2.70
2018-04-27T00:04:28.742Z,2.50
2018-04-27T00:05:28.227Z,2.80
2018-04-27T00:06:29.232Z,2.40
2018-04-27T00:07:27.562Z,2.50
2018-04-27T00:08:27.773Z,2.40
2018-04-27T00:09:28.992Z,2.80
2018-04-27T00:10:28.098Z,2.70
2018-04-27T00:11:30.241Z,2.70
2018-04-27T00:12:28.442Z,2.70
2018-04-27T00:13:30.215Z,2.70
2018-04-27T00:14:28.795Z,2.40
2018-04-27T00:15:30.000Z,2.50
2018-04-27T00:16:30.721Z,2.30
2018-04-27T00:17:31.218Z,2.50
2018-04-27T00:18:30.291Z,2.70
2018-04-27T00:19:29.767Z,2.80
2018-04-27T00:20:30.979Z,3.10
2018-04-27T00:21:30.180Z,2.40
2018-04-27T00:22:30.399Z,2.70
2018-04-27T00:23:30.597Z,2.40
2018-04-27T00:24:30.818Z,2.60
2018-04-27T00:25:31.021Z,2.70
2018-04-27T00:26:31.269Z,2.70
2018-04-27T00:27:31.482Z,2.80
2018-04-27T00:28:31.687Z,2.80
2018-04-27T00:29:33.731Z,2.80
2018-04-27T00:30:32.059Z,2.50
2018-04-27T00:31:34.219Z,2.70
2018-04-27T00:32:32.441Z,2.50
2018-04-27T00:33:32.648Z,2.60
2018-04-27T00:34:32.859Z,2.70
2018-04-27T00:35:35.719Z,2.90
2018-04-27T00:36:33.293Z,2.50
2018-04-27T00:37:33.507Z,2.60
2018-04-27T00:38:35.218Z,2.40
2018-04-27T00:39:33.965Z,2.50
2018-04-27T00:40:34.130Z,2.40
2018-04-27T00:41:34.336Z,2.50
2018-04-27T00:42:34.546Z,2.60
2018-04-27T00:43:34.741Z,2.50
2018-04-27T00:44:34.987Z,2.70
2018-04-27T00:45:35.090Z,2.40
2018-04-27T00:46:35.298Z,2.30
2018-04-27T00:47:38.214Z,2.80
2018-04-27T00:48:35.684Z,2.40
2018-04-27T00:49:36.816Z,2.60
2018-04-27T00:50:38.718Z,2.90
2018-04-27T00:51:37.178Z,2.80
2018-04-27T00:52:36.412Z,2.80
2018-04-27T00:53:36.617Z,3.10
2018-04-27T00:54:36.833Z,2.90
2018-04-27T00:55:39.711Z,2.80
2018-04-27T00:56:39.716Z,2.90
2018-04-27T00:57:37.303Z,3.00
2018-04-27T00:58:37.517Z,2.90
2018-04-27T00:59:37.720Z,2.80
2018-04-27T01:00:37.923Z,3.20
2018-04-27T01:01:38.126Z,2.90
2018-04-27T01:02:38.360Z,2.80
2018-04-27T01:03:38.579Z,2.80
2018-04-27T01:04:38.837Z,2.90
2018-04-27T01:05:42.767Z,2.90
2018-04-27T01:06:39.194Z,2.90
2018-04-27T01:07:39.288Z,2.60
2018-04-27T01:08:39.512Z,2.80
2018-04-27T01:09:39.605Z,2.90
2018-04-27T01:10:39.821Z,3.10
2018-04-27T01:11:41.022Z,3.00
2018-04-27T01:12:42.221Z,2.90
2018-04-27T01:13:40.444Z,3.10
2018-04-27T01:14:44.385Z,3.00
2018-04-27T01:15:42.727Z,3.20
2018-04-27T01:16:41.067Z,3.20
2018-04-27T01:17:41.312Z,3.20
2018-04-27T01:18:43.222Z,3.30
2018-04-27T01:19:41.549Z,3.50
2018-04-27T01:20:43.722Z,3.00
2018-04-27T01:21:41.924Z,3.20
2018-04-27T01:22:42.132Z,3.00
2018-04-27T01:23:44.219Z,2.90
2018-04-27T01:24:42.543Z,3.10
2018-04-27T01:25:42.752Z,3.10
2018-04-27T01:26:44.711Z,3.30
2018-04-27T01:27:43.174Z,3.10
2018-04-27T01:28:45.212Z,3.10
2018-04-27T01:29:43.542Z,3.00
2018-04-27T01:30:46.734Z,3.20
2018-04-27T01:31:43.968Z,2.90
2018-04-27T01:32:45.709Z,3.00
2018-04-27T01:33:46.250Z,3.00
2018-04-27T01:34:44.558Z,2.90
2018-04-27T01:35:46.215Z,3.50
2018-04-27T01:36:44.814Z,3.00
2018-04-27T01:37:44.951Z,3.00
2018-04-27T01:38:45.167Z,3.40
2018-04-27T01:39:45.258Z,3.30
2018-04-27T01:40:45.505Z,3.20
2018-04-27T01:41:45.620Z,3.20
2018-04-27T01:42:45.830Z,3.30
2018-04-27T01:43:46.037Z,3.00
2018-04-27T01:44:48.228Z,3.30
2018-04-27T01:45:46.436Z,3.20
2018-04-27T01:46:48.211Z,3.30
2018-04-27T01:47:46.799Z,3.10
2018-04-27T01:48:50.716Z,3.10
2018-04-27T01:49:48.713Z,3.20
2018-04-27T01:50:47.322Z,3.10
2018-04-27T01:51:47.423Z,3.30
2018-04-27T01:52:47.632Z,3.40
2018-04-27T01:53:49.761Z,3.60
2018-04-27T01:54:48.016Z,3.60
2018-04-27T01:55:49.110Z,3.40
2018-04-27T01:56:50.234Z,3.50
2018-04-27T01:57:51.219Z,3.20
2018-04-27T01:58:49.669Z,3.60
2018-04-27T01:59:50.714Z,3.70
2018-04-27T02:00:49.049Z,3.20
2018-04-27T02:01:49.269Z,3.30
2018-04-27T02:02:52.115Z,3.40
2018-04-27T02:03:52.212Z,3.00
2018-04-27T02:04:49.814Z,3.40
2018-04-27T02:05:51.720Z,3.20
2018-04-27T02:06:50.179Z,3.30
2018-04-27T02:07:52.211Z,3.40
2018-04-27T02:08:53.216Z,3.10
2018-04-27T02:09:52.234Z,3.40
2018-04-27T02:10:50.825Z,3.40
2018-04-27T02:11:51.133Z,3.30
2018-04-27T02:12:55.223Z,3.70
2018-04-27T02:13:51.432Z,3.50
2018-04-27T02:14:52.649Z,3.70
2018-04-27T02:15:51.854Z,3.60
2018-04-27T02:16:52.060Z,3.60
2018-04-27T02:17:52.265Z,3.70
2018-04-27T02:18:55.220Z,3.80
2018-04-27T02:19:52.681Z,3.60
2018-04-27T02:20:52.926Z,3.60
2018-04-27T02:21:53.024Z,3.90
2018-04-27T02:22:54.210Z,3.70
2018-04-27T02:23:53.466Z,3.40
2018-04-27T02:24:55.230Z,3.60
2018-04-27T02:25:53.817Z,3.60
2018-04-27T02:26:54.070Z,3.60
2018-04-27T02:27:54.192Z,3.30
2018-04-27T02:28:54.285Z,3.80
2018-04-27T02:29:56.216Z,3.90
2018-04-27T02:30:54.681Z,3.80
2018-04-27T02:31:54.781Z,3.70
2018-04-27T02:32:54.981Z,3.70
2018-04-27T02:33:55.190Z,3.70
2018-04-27T02:34:55.404Z,3.60
2018-04-27T02:36:03.213Z,3.20
2018-04-27T02:36:55.809Z,3.50
2018-04-27T02:37:55.904Z,3.40
2018-04-27T02:38:57.719Z,3.70
2018-04-27T02:39:58.211Z,4.00
2018-04-27T02:40:56.417Z,3.40
2018-04-27T02:42:01.219Z,3.70
2018-04-27T02:43:00.742Z,3.50
2018-04-27T02:43:58.710Z,3.30
2018-04-27T02:44:57.062Z,3.60
2018-04-27T02:45:57.172Z,3.10
2018-04-27T02:46:57.372Z,3.50
2018-04-27T02:47:57.575Z,3.50
2018-04-27T02:49:00.711Z,3.30
2018-04-27T02:49:59.709Z,3.50
2018-04-27T02:50:59.708Z,3.50
2018-04-27T02:51:59.722Z,4.10
2018-04-27T02:52:58.326Z,3.80
2018-04-27T02:53:58.472Z,3.70
2018-04-27T02:54:58.572Z,3.60
2018-04-27T02:56:00.712Z,3.80
2018-04-27T02:57:01.719Z,3.50
2018-04-27T02:58:00.063Z,3.90
2018-04-27T02:58:59.157Z,3.80
2018-04-27T03:00:01.915Z,3.30
2018-04-27T03:00:59.534Z,3.90
2018-04-27T03:02:00.668Z,3.60
2018-04-27T03:02:59.769Z,3.60
2018-04-27T03:04:00.667Z,3.60
2018-04-27T03:05:00.168Z,3.30
2018-04-27T03:06:00.271Z,4.00
2018-04-27T03:07:00.485Z,3.40
2018-04-27T03:08:00.607Z,3.60
2018-04-27T03:09:07.736Z,3.50
2018-04-27T03:10:01.959Z,4.00
2018-04-27T03:11:02.717Z,3.80
2018-04-27T03:12:03.214Z,3.40
2018-04-27T03:13:04.163Z,3.50
2018-04-27T03:14:03.210Z,3.70
2018-04-27T03:15:03.717Z,3.30
2018-04-27T03:16:03.708Z,3.50
2018-04-27T03:17:04.714Z,3.70
2018-04-27T03:18:02.288Z,3.60
2018-04-27T03:19:02.529Z,3.60
2018-04-27T03:20:04.213Z,3.40
2018-04-27T03:21:09.717Z,3.50
2018-04-27T03:22:02.917Z,3.90
2018-04-27T03:23:03.122Z,3.80
2018-04-27T03:24:03.336Z,3.20
2018-04-27T03:25:05.222Z,3.70
2018-04-27T03:26:03.666Z,3.60
2018-04-27T03:27:03.910Z,3.70
2018-04-27T03:28:05.713Z,3.70
2018-04-27T03:29:04.291Z,3.80
2018-04-27T03:30:04.510Z,3.70
2018-04-27T03:31:05.733Z,4.10
2018-04-27T03:32:08.710Z,3.70
2018-04-27T03:33:06.708Z,3.90
2018-04-27T03:34:06.291Z,4.10
2018-04-27T03:35:05.504Z,4.10
2018-04-27T03:36:05.711Z,3.70
2018-04-27T03:37:06.939Z,3.80
2018-04-27T03:38:07.708Z,4.10
2018-04-27T03:39:08.214Z,4.10
2018-04-27T03:40:06.460Z,4.10
2018-04-27T03:41:06.653Z,3.90
2018-04-27T03:42:08.758Z,4.00
2018-04-27T03:43:09.709Z,3.90
2018-04-27T03:44:07.154Z,4.40
2018-04-27T03:45:07.357Z,4.30
2018-04-27T03:46:08.566Z,4.00
2018-04-27T03:47:08.873Z,4.00
2018-04-27T03:48:09.711Z,3.80
2018-04-27T03:49:09.726Z,3.90
2018-04-27T03:50:10.210Z,3.80
2018-04-27T03:51:14.535Z,3.90
2018-04-27T03:52:10.713Z,3.80
2018-04-27T03:53:10.720Z,3.80
2018-04-27T03:54:11.716Z,4.00
2018-04-27T03:55:12.210Z,4.30
2018-04-27T03:56:13.218Z,4.10
2018-04-27T03:57:09.551Z,4.20
2018-04-27T03:58:09.754Z,3.90
2018-04-27T03:59:09.964Z,4.00
2018-04-27T04:00:11.715Z,3.70
2018-04-27T04:01:12.315Z,4.40
2018-04-27T04:02:10.437Z,3.90
2018-04-27T04:03:10.633Z,4.10
2018-04-27T04:04:10.876Z,4.00
2018-04-27T04:05:11.088Z,4.00
2018-04-27T04:06:11.294Z,4.00
2018-04-27T04:07:13.209Z,4.10
2018-04-27T04:08:12.653Z,4.30
2018-04-27T04:09:11.876Z,4.20
2018-04-27T04:10:12.098Z,4.20
2018-04-27T04:11:12.195Z,4.00
2018-04-27T04:12:14.241Z,4.30
2018-04-27T04:13:12.574Z,4.10
2018-04-27T04:14:16.744Z,4.20
2018-04-27T04:15:12.918Z,3.90
2018-04-27T04:16:15.710Z,4.20
2018-04-27T04:17:13.293Z,4.10
2018-04-27T04:18:13.493Z,3.80
2018-04-27T04:19:13.703Z,3.90
2018-04-27T04:20:13.965Z,3.60
2018-04-27T04:21:14.047Z,3.80
2018-04-27T04:22:16.224Z,4.20
2018-04-27T04:23:15.168Z,4.10
2018-04-27T04:24:14.642Z,4.10
2018-04-27T04:25:17.710Z,4.50
2018-04-27T04:26:17.715Z,4.10
2018-04-27T04:27:15.166Z,4.10
2018-04-27T04:28:15.385Z,4.00
2018-04-27T04:29:15.597Z,4.00
2018-04-27T04:30:15.803Z,4.30
2018-04-27T04:31:16.028Z,4.20
2018-04-27T04:32:19.256Z,4.30
2018-04-27T04:33:17.421Z,4.30
2018-04-27T04:34:22.213Z,3.70
2018-04-27T04:35:19.716Z,4.00
2018-04-27T04:36:18.713Z,3.70
2018-04-27T04:37:21.146Z,3.90
2018-04-27T04:38:17.243Z,3.90
2018-04-27T04:39:17.452Z,3.80
2018-04-27T04:40:17.653Z,4.00
2018-04-27T04:41:17.867Z,4.40
2018-04-27T04:42:19.711Z,3.80
2018-04-27T04:43:19.313Z,3.90
2018-04-27T04:44:20.213Z,4.10
2018-04-27T04:45:18.534Z,4.00
2018-04-27T04:46:20.738Z,3.80
2018-04-27T04:47:18.940Z,3.90
2018-04-27T04:48:19.024Z,3.30
2018-04-27T04:49:19.259Z,3.80
2018-04-27T04:50:19.347Z,3.30
2018-04-27T04:51:19.551Z,3.50
2018-04-27T04:52:21.733Z,3.20
2018-04-27T04:53:19.911Z,3.30
2018-04-27T04:54:23.724Z,3.20
2018-04-27T04:55:20.309Z,3.80
2018-04-27T04:56:20.517Z,3.50
2018-04-27T04:57:20.732Z,3.40
2018-04-27T04:58:22.724Z,3.40
2018-04-27T04:59:21.068Z,3.60
2018-04-27T05:00:21.275Z,3.40
2018-04-27T05:01:24.172Z,3.30
2018-04-27T05:02:21.652Z,3.20
2018-04-27T05:03:21.863Z,3.00
2018-04-27T05:04:23.737Z,2.90
2018-04-27T05:05:23.218Z,3.10
2018-04-27T05:06:22.440Z,3.10
2018-04-27T05:07:22.696Z,2.90
2018-04-27T05:08:22.898Z,3.40
2018-04-27T05:09:24.079Z,3.40
2018-04-27T05:10:23.283Z,3.30
2018-04-27T05:11:23.507Z,3.20
2018-04-27T05:12:23.609Z,3.30
2018-04-27T05:13:23.820Z,3.10
2018-04-27T05:14:25.709Z,4.30
2018-04-27T05:15:25.712Z,3.50
2018-04-27T05:16:25.307Z,3.80
2018-04-27T05:17:24.526Z,3.00
2018-04-27T05:18:26.713Z,3.50
2018-04-27T05:19:24.962Z,3.00
2018-04-27T05:20:25.063Z,3.20
2018-04-27T05:21:25.275Z,2.90
2018-04-27T05:22:27.227Z,3.10
2018-04-27T05:23:25.711Z,3.50
2018-04-27T05:24:27.758Z,3.20
2018-04-27T05:25:28.133Z,3.40
2018-04-27T05:26:26.260Z,3.50
2018-04-27T05:27:26.335Z,3.20
2018-04-27T05:28:29.217Z,3.40
2018-04-27T05:29:28.247Z,3.10
2018-04-27T05:30:26.799Z,3.70
2018-04-27T05:31:28.728Z,4.10
2018-04-27T05:32:27.196Z,3.80
2018-04-27T05:33:27.399Z,3.90
2018-04-27T05:34:30.226Z,5.20
2018-04-27T05:35:29.719Z,3.90
2018-04-27T05:36:27.934Z,3.70
2018-04-27T05:37:28.162Z,3.20
2018-04-27T05:38:28.277Z,3.50
2018-04-27T05:39:28.481Z,3.50
2018-04-27T05:40:28.680Z,3.80
2018-04-27T05:41:28.895Z,3.50
2018-04-27T05:42:29.108Z,3.40
2018-04-27T05:43:29.313Z,2.90
2018-04-27T05:44:29.524Z,3.40
2018-04-27T05:45:29.737Z,3.10
2018-04-27T05:46:29.996Z,3.00
2018-04-27T05:47:30.195Z,3.20
2018-04-27T05:48:30.288Z,3.30
2018-04-27T05:49:33.207Z,2.90
2018-04-27T05:50:30.661Z,3.00
2018-04-27T05:51:30.871Z,2.90
2018-04-27T05:52:31.093Z,2.80
2018-04-27T05:53:31.294Z,2.60
2018-04-27T05:54:31.503Z,2.60
2018-04-27T05:55:31.824Z,2.70
2018-04-27T05:56:31.837Z,3.00
2018-04-27T05:57:32.073Z,2.60
2018-04-27T05:58:32.298Z,2.80
2018-04-27T05:59:32.490Z,2.50
2018-04-27T06:00:32.711Z,2.60
2018-04-27T06:01:32.919Z,2.50
2018-04-27T06:02:33.132Z,2.70
2018-04-27T06:03:33.344Z,2.30
2018-04-27T06:04:33.572Z,2.50
2018-04-27T06:05:33.763Z,2.40
2018-04-27T06:06:33.979Z,2.60
2018-04-27T06:07:34.188Z,2.50
2018-04-27T06:08:34.412Z,2.40
2018-04-27T06:09:34.617Z,2.40
2018-04-27T06:10:34.825Z,2.20
2018-04-27T06:11:35.043Z,2.60
2018-04-27T06:12:35.285Z,2.30
2018-04-27T06:13:35.469Z,2.20
2018-04-27T06:14:35.685Z,2.50
2018-04-27T06:15:37.708Z,2.60
2018-04-27T06:16:36.037Z,2.40
2018-04-27T06:17:36.250Z,2.50
2018-04-27T06:18:38.215Z,2.50
2018-04-27T06:19:36.674Z,2.50
2018-04-27T06:20:36.891Z,2.70
2018-04-27T06:21:37.105Z,2.60
2018-04-27T06:22:37.317Z,2.60
2018-04-27T06:23:37.540Z,2.50
2018-04-27T06:24:37.763Z,2.60
2018-04-27T06:25:37.980Z,2.70
2018-04-27T06:26:38.185Z,2.50
2018-04-27T06:27:38.398Z,2.60
2018-04-27T06:28:38.612Z,2.50
2018-04-27T06:29:38.818Z,2.70
2018-04-27T06:30:39.034Z,2.50
2018-04-27T06:31:39.247Z,2.50
2018-04-27T06:32:39.451Z,2.60
2018-04-27T06:33:41.207Z,2.50
2018-04-27T06:34:39.798Z,2.90
2018-04-27T06:35:40.015Z,2.80
2018-04-27T06:36:40.231Z,2.50
2018-04-27T06:37:40.438Z,2.50
2018-04-27T06:38:40.651Z,2.60
2018-04-27T06:39:40.859Z,2.60
2018-04-27T06:40:41.073Z,2.60
2018-04-27T06:41:41.290Z,2.60
2018-04-27T06:42:41.498Z,2.70
2018-04-27T06:43:43.212Z,2.70
2018-04-27T06:44:41.920Z,2.30
2018-04-27T06:45:44.722Z,2.40
2018-04-27T06:46:42.297Z,2.60
2018-04-27T06:47:42.507Z,2.70
2018-04-27T06:48:42.718Z,2.50
2018-04-27T06:49:42.938Z,2.50
2018-04-27T06:50:43.143Z,2.50
2018-04-27T06:51:43.354Z,2.70
2018-04-27T06:52:43.563Z,2.60
2018-04-27T06:53:43.774Z,3.20
2018-04-27T06:54:44.036Z,2.90
2018-04-27T06:55:44.203Z,3.00
2018-04-27T06:56:44.419Z,2.80
2018-04-27T06:57:44.627Z,2.80
2018-04-27T06:58:44.967Z,2.70
2018-04-27T06:59:46.844Z,2.90
2018-04-27T07:00:45.279Z,2.50
2018-04-27T07:01:45.488Z,2.40
2018-04-27T07:02:45.708Z,2.50
2018-04-27T07:03:45.916Z,2.30
2018-04-27T07:04:46.133Z,2.40
2018-04-27T07:05:46.339Z,2.40
2018-04-27T07:06:46.553Z,2.70
2018-04-27T07:07:48.711Z,2.60
2018-04-27T07:08:46.918Z,2.60
2018-04-27T07:09:47.137Z,2.70
2018-04-27T07:10:47.344Z,2.60
2018-04-27T07:11:49.214Z,2.40
2018-04-27T07:12:47.678Z,2.70
2018-04-27T07:13:47.890Z,2.50
2018-04-27T07:14:48.120Z,4.10
2018-04-27T07:15:48.343Z,2.80
2018-04-27T07:16:48.627Z,2.40
2018-04-27T07:17:50.720Z,2.60
2018-04-27T07:18:48.926Z,2.70
2018-04-27T07:19:49.138Z,2.80
2018-04-27T07:20:49.362Z,2.90
2018-04-27T07:21:49.573Z,2.70
2018-04-27T07:22:49.803Z,2.70
2018-04-27T07:23:50.021Z,2.70
2018-04-27T07:24:50.231Z,2.80
2018-04-27T07:25:50.525Z,2.90
2018-04-27T07:26:50.665Z,2.60
2018-04-27T07:27:50.881Z,2.50
2018-04-27T07:28:51.107Z,2.40
2018-04-27T07:29:51.313Z,2.40
2018-04-27T07:30:53.218Z,2.90
2018-04-27T07:31:51.693Z,2.50
2018-04-27T07:32:51.907Z,2.40
2018-04-27T07:33:52.117Z,2.30
2018-04-27T07:34:52.331Z,2.40
2018-04-27T07:35:52.561Z,2.50
2018-04-27T07:36:52.779Z,2.70
2018-04-27T07:37:52.991Z,2.80
2018-04-27T07:38:53.214Z,2.40
2018-04-27T07:39:53.430Z,2.50
2018-04-27T07:40:53.640Z,2.50
2018-04-27T07:41:53.859Z,2.50
2018-04-27T07:42:54.073Z,2.50
2018-04-27T07:43:54.297Z,2.60
2018-04-27T07:44:54.529Z,2.70
2018-04-27T07:45:57.733Z,2.60
2018-04-27T07:46:54.954Z,2.50
2018-04-27T07:47:55.178Z,2.60
2018-04-27T07:48:57.545Z,2.50
2018-04-27T07:49:57.230Z,2.90
2018-04-27T07:50:55.840Z,2.60
2018-04-27T07:51:57.718Z,2.60
2018-04-27T07:52:56.178Z,2.70
2018-04-27T07:53:58.218Z,2.60
2018-04-27T07:54:56.569Z,2.70
2018-04-27T07:55:58.716Z,3.00
2018-04-27T07:56:56.925Z,2.80
2018-04-27T07:57:59.715Z,2.80
2018-04-27T07:58:57.302Z,2.70
2018-04-27T07:59:57.516Z,2.80
2018-04-27T08:00:57.750Z,2.70
2018-04-27T08:01:59.743Z,2.50
2018-04-27T08:02:58.196Z,2.60
2018-04-27T08:03:58.409Z,2.60
2018-04-27T08:05:01.553Z,2.70
2018-04-27T08:05:58.767Z,2.60
2018-04-27T08:06:58.986Z,2.80
2018-04-27T08:07:59.199Z,2.60
2018-04-27T08:09:01.214Z,3.00
2018-04-27T08:09:59.567Z,2.50
2018-04-27T08:11:01.717Z,2.40
2018-04-27T08:11:59.929Z,2.20
2018-04-27T08:13:00.145Z,2.10
2018-04-27T08:14:03.226Z,2.30
2018-04-27T08:15:01.006Z,2.80
2018-04-27T08:16:01.738Z,2.40
2018-04-27T08:17:00.955Z,2.60
2018-04-27T08:18:01.215Z,2.40
2018-04-27T08:19:01.405Z,2.20
2018-04-27T08:20:03.235Z,2.20
2018-04-27T08:21:01.848Z,2.30
2018-04-27T08:22:03.739Z,2.80
2018-04-27T08:23:02.244Z,2.40
2018-04-27T08:24:04.265Z,2.40
2018-04-27T08:25:04.229Z,2.40
2018-04-27T08:26:02.688Z,2.50
2018-04-27T08:27:04.739Z,2.70
2018-04-27T08:28:04.716Z,2.40
2018-04-27T08:29:05.216Z,2.80
2018-04-27T08:30:05.265Z,2.70
2018-04-27T08:31:05.224Z,2.40
2018-04-27T08:32:03.822Z,2.30
2018-04-27T08:33:04.035Z,2.30
2018-04-27T08:34:06.236Z,2.90
2018-04-27T08:35:04.479Z,3.10
2018-04-27T08:36:04.735Z,3.00
2018-04-27T08:37:06.721Z,2.30
2018-04-27T08:38:07.724Z,2.20
2018-04-27T08:39:05.338Z,2.40
2018-04-27T08:40:07.244Z,2.50
2018-04-27T08:41:21.243Z,2.50
2018-04-27T08:42:07.672Z,2.80
2018-04-27T08:43:12.750Z,2.50
2018-04-27T08:44:12.216Z,2.50
2018-04-27T08:45:08.272Z,2.30
2018-04-27T08:46:06.772Z,2.40
2018-04-27T08:47:08.723Z,2.50
2018-04-27T08:48:13.723Z,2.20
2018-04-27T08:49:09.226Z,2.20
2018-04-27T08:50:09.220Z,2.40
2018-04-27T08:51:10.713Z,2.40
2018-04-27T08:52:10.719Z,2.40
2018-04-27T08:53:08.196Z,2.00
2018-04-27T08:54:08.424Z,2.30
2018-04-27T08:55:10.235Z,2.30
2018-04-27T08:56:12.734Z,2.40
2018-04-27T08:57:10.488Z,2.40
2018-04-27T08:58:12.719Z,2.40
2018-04-27T08:59:11.231Z,2.50
2018-04-27T09:00:11.229Z,2.30
2018-04-27T09:01:15.712Z,2.60
2018-04-27T09:02:12.721Z,2.40
2018-04-27T09:03:11.723Z,2.10
2018-04-27T09:04:12.224Z,2.40
2018-04-27T09:05:12.233Z,2.20
2018-04-27T09:06:14.237Z,2.30
2018-04-27T09:07:10.839Z,2.50
2018-04-27T09:08:12.721Z,2.70
2018-04-27T09:09:14.813Z,2.20
2018-04-27T09:10:11.474Z,2.10
2018-04-27T09:11:15.271Z,2.10
2018-04-27T09:12:11.751Z,2.30
2018-04-27T09:13:15.734Z,2.10
2018-04-27T09:14:13.731Z,2.10
2018-04-27T09:15:14.234Z,1.90
2018-04-27T09:16:14.250Z,2.00
2018-04-27T09:17:16.225Z,2.00
2018-04-27T09:18:35.731Z,2.00
2018-04-27T09:19:13.192Z,2.00
2018-04-27T09:20:13.408Z,2.10
2018-04-27T09:21:15.225Z,2.20
2018-04-27T09:22:13.881Z,2.00
2018-04-27T09:23:14.020Z,1.70
2018-04-27T09:24:15.734Z,2.00
2018-04-27T09:25:17.239Z,2.10
2018-04-27T09:26:14.576Z,1.70
2018-04-27T09:27:22.739Z,1.80
2018-04-27T09:28:14.958Z,1.90
2018-04-27T09:29:15.171Z,2.10
2018-04-27T09:30:16.398Z,1.80
2018-04-27T09:31:18.099Z,1.90
2018-04-27T09:32:15.894Z,1.80
2018-04-27T09:33:15.940Z,2.30
2018-04-27T09:34:16.240Z,2.30
2018-04-27T09:35:16.320Z,2.20
2018-04-27T09:36:17.537Z,1.90
2018-04-27T09:37:18.727Z,2.10
2018-04-27T09:38:16.947Z,2.10
2018-04-27T09:39:18.727Z,1.90
2018-04-27T09:40:17.313Z,1.70
2018-04-27T09:41:19.253Z,1.60
2018-04-27T09:42:17.758Z,2.00
2018-04-27T09:43:19.735Z,1.80
2018-04-27T09:44:18.069Z,1.70
2018-04-27T09:45:19.380Z,1.70
2018-04-27T09:46:18.534Z,1.70
2018-04-27T09:47:20.727Z,1.70
2018-04-27T09:48:18.943Z,1.80
2018-04-27T09:49:20.172Z,1.90
2018-04-27T09:50:19.403Z,1.90
2018-04-27T09:51:19.608Z,2.10
2018-04-27T09:52:19.831Z,1.80
2018-04-27T09:53:20.054Z,1.80
2018-04-27T09:54:20.263Z,2.30
2018-04-27T09:55:20.497Z,1.80
2018-04-27T09:56:20.724Z,2.10
2018-04-27T09:57:20.942Z,1.80
2018-04-27T09:58:21.159Z,1.70
2018-04-27T09:59:23.230Z,2.00
2018-04-27T10:00:21.574Z,1.80
2018-04-27T10:01:21.784Z,2.00
2018-04-27T10:02:22.013Z,1.70
2018-04-27T10:03:24.749Z,2.00
2018-04-27T10:04:22.465Z,1.90
2018-04-27T10:05:22.682Z,1.80
2018-04-27T10:06:22.892Z,2.00
2018-04-27T10:07:24.115Z,2.20
2018-04-27T10:08:23.328Z,2.10
2018-04-27T10:09:23.556Z,2.00
2018-04-27T10:10:26.738Z,1.70
2018-04-27T10:11:23.943Z,1.90
2018-04-27T10:12:25.754Z,3.50
2018-04-27T10:13:24.354Z,2.60
2018-04-27T10:14:24.568Z,1.90
2018-04-27T10:15:26.731Z,2.00
2018-04-27T10:16:24.959Z,1.80
2018-04-27T10:17:25.157Z,1.70
2018-04-27T10:18:25.372Z,1.90
2018-04-27T10:19:25.582Z,1.90
2018-04-27T10:20:29.809Z,2.10
2018-04-27T10:21:25.952Z,1.80
2018-04-27T10:22:27.763Z,2.00
2018-04-27T10:23:26.370Z,2.10
2018-04-27T10:24:28.235Z,1.90
2018-04-27T10:25:26.825Z,1.90
2018-04-27T10:26:27.038Z,1.80
2018-04-27T10:27:27.255Z,2.00
2018-04-27T10:28:29.239Z,1.80
2018-04-27T10:29:29.236Z,1.90
2018-04-27T10:30:27.834Z,1.70
2018-04-27T10:31:28.042Z,1.70
2018-04-27T10:32:28.264Z,2.00
2018-04-27T10:33:28.493Z,1.80
2018-04-27T10:34:28.713Z,2.00
2018-04-27T10:35:30.737Z,2.00
2018-04-27T10:36:29.168Z,1.90
2018-04-27T10:37:31.234Z,1.70
2018-04-27T10:38:31.233Z,1.90
2018-04-27T10:39:29.577Z,2.00
2018-04-27T10:40:29.795Z,1.70
2018-04-27T10:41:33.748Z,1.80
2018-04-27T10:42:30.219Z,1.80
2018-04-27T10:43:30.445Z,1.90
2018-04-27T10:44:30.652Z,1.60
2018-04-27T10:45:30.893Z,1.70
2018-04-27T10:46:32.731Z,1.60
2018-04-27T10:47:35.231Z,1.70
2018-04-27T10:48:33.235Z,1.80
2018-04-27T10:49:33.229Z,1.60
2018-04-27T10:50:37.943Z,1.40
2018-04-27T10:51:33.753Z,1.50
2018-04-27T10:52:33.412Z,1.70
2018-04-27T10:53:32.545Z,1.90
2018-04-27T10:54:32.663Z,1.60
2018-04-27T10:55:35.745Z,1.40
2018-04-27T10:56:33.084Z,1.80
2018-04-27T10:57:33.299Z,1.60
2018-04-27T10:58:35.238Z,1.60
2018-04-27T10:59:36.075Z,1.60
2018-04-27T11:00:35.733Z,1.60
2018-04-27T11:01:34.070Z,1.40
2018-04-27T11:02:38.236Z,1.60
2018-04-27T11:03:35.455Z,1.60
2018-04-27T11:04:37.134Z,1.40
2018-04-27T11:05:36.748Z,1.70
2018-04-27T11:06:57.744Z,1.60
2018-04-27T11:07:41.241Z,1.50
2018-04-27T11:08:35.496Z,1.50
2018-04-27T11:09:35.599Z,1.50
2018-04-27T11:10:35.816Z,1.70
2018-04-27T11:11:36.035Z,2.10
2018-04-27T11:12:39.242Z,1.80
2018-04-27T11:13:39.235Z,1.90
2018-04-27T11:14:42.252Z,2.10
2018-04-27T11:15:39.775Z,1.60
2018-04-27T11:16:37.013Z,1.60
2018-04-27T11:17:37.261Z,1.80
2018-04-27T11:18:37.463Z,1.90
2018-04-27T11:19:49.237Z,1.70
2018-04-27T11:20:39.741Z,1.60
2018-04-27T11:21:41.712Z,1.70
2018-04-27T11:22:39.771Z,1.70
2018-04-27T11:23:40.244Z,1.70
2018-04-27T11:24:41.278Z,1.30
2018-04-27T11:25:40.239Z,1.90
2018-04-27T11:26:38.828Z,1.60
2018-04-27T11:27:39.043Z,1.60
2018-04-27T11:28:47.252Z,1.90
2018-04-27T11:29:41.237Z,1.90
2018-04-27T11:30:41.246Z,1.70
2018-04-27T11:31:43.241Z,1.50
2018-04-27T11:32:43.753Z,1.60
2018-04-27T11:33:42.723Z,2.00
2018-04-27T11:34:42.247Z,1.70
2018-04-27T11:35:42.242Z,1.90
2018-04-27T11:36:42.237Z,1.60
2018-04-27T11:37:56.740Z,1.20
2018-04-27T11:38:42.744Z,1.80
2018-04-27T11:39:41.228Z,1.50
2018-04-27T11:40:43.290Z,1.50
2018-04-27T11:41:41.653Z,1.40
2018-04-27T11:42:42.898Z,1.60
2018-04-27T11:43:45.743Z,1.80
2018-04-27T11:44:42.223Z,1.70
2018-04-27T11:45:46.300Z,1.60
2018-04-27T11:46:42.668Z,1.30
2018-04-27T11:47:44.780Z,1.50
2018-04-27T11:48:43.130Z,1.70
2018-04-27T11:49:45.752Z,1.40
2018-04-27T11:50:58.316Z,1.40
2018-04-27T11:51:45.263Z,1.60
2018-04-27T11:52:43.859Z,1.70
2018-04-27T11:53:45.704Z,1.70
2018-04-27T11:54:46.248Z,1.70
2018-04-27T11:56:05.523Z,1.30
2018-04-27T11:56:50.403Z,1.70
2018-04-27T11:57:48.267Z,1.60
2018-04-27T11:58:46.745Z,1.50
2018-04-27T11:59:45.232Z,1.50
2018-04-27T12:00:47.390Z,1.70
2018-04-27T12:01:47.327Z,1.50
2018-04-27T12:02:47.246Z,1.60
2018-04-27T12:03:47.850Z,1.60
2018-04-27T12:04:57.742Z,1.80
2018-04-27T12:05:46.332Z,1.90
2018-04-27T12:06:47.580Z,1.60
2018-04-27T12:07:46.732Z,1.40
2018-04-27T12:08:47.958Z,1.70
2018-04-27T12:09:48.743Z,1.40
2018-04-27T12:11:08.221Z,1.30
2018-04-27T12:11:47.408Z,1.50
2018-04-27T12:12:49.280Z,1.30
2018-04-27T12:13:50.210Z,1.50
2018-04-27T12:14:48.971Z,1.50
2018-04-27T12:15:54.755Z,1.50
2018-04-27T12:16:48.212Z,1.80
2018-04-27T12:17:48.443Z,1.50
2018-04-27T12:18:50.249Z,2.00
2018-04-27T12:19:50.743Z,1.50
2018-04-27T12:20:55.744Z,1.50
2018-04-27T12:21:51.744Z,1.50
2018-04-27T12:22:49.461Z,1.40
2018-04-27T12:23:50.698Z,1.50
2018-04-27T12:24:49.931Z,1.40
2018-04-27T12:25:57.800Z,1.80
2018-04-27T12:26:50.418Z,1.50
2018-04-27T12:27:50.531Z,1.60
2018-04-27T12:28:54.779Z,1.60
2018-04-27T12:29:53.617Z,1.50
2018-04-27T12:30:52.790Z,1.60
2018-04-27T12:31:51.457Z,1.80
2018-04-27T12:32:51.469Z,1.40
2018-04-27T12:33:55.247Z,1.70
2018-04-27T12:34:52.880Z,1.60
2018-04-27T12:35:55.751Z,1.40
2018-04-27T12:36:52.204Z,1.70
2018-04-27T12:37:52.464Z,1.70
2018-04-27T12:38:56.259Z,1.70
2018-04-27T12:39:55.255Z,1.70
2018-04-27T12:40:52.856Z,1.50
2018-04-27T12:41:54.111Z,1.50
2018-04-27T12:42:54.800Z,1.60
2018-04-27T12:43:53.423Z,1.60
2018-04-27T12:44:54.564Z,1.70
2018-04-27T12:45:54.796Z,1.50
2018-04-27T12:46:53.914Z,1.60
2018-04-27T12:47:54.166Z,1.70
2018-04-27T12:48:56.249Z,1.80
2018-04-27T12:49:55.490Z,1.60
2018-04-27T12:50:57.372Z,1.70
2018-04-27T12:51:54.851Z,2.10
2018-04-27T12:52:55.086Z,1.90
2018-04-27T12:53:55.297Z,2.00
2018-04-27T12:54:57.145Z,1.70
2018-04-27T12:55:55.750Z,1.70
2018-04-27T12:56:56.986Z,1.50
2018-04-27T12:57:58.751Z,1.50
2018-04-27T12:58:58.255Z,1.90
2018-04-27T12:59:56.466Z,1.80
2018-04-27T13:01:00.324Z,1.70
2018-04-27T13:01:58.797Z,1.70
2018-04-27T13:02:58.169Z,1.70
2018-04-27T13:03:57.289Z,1.70
2018-04-27T13:04:57.524Z,1.80
2018-04-27T13:05:59.248Z,1.90
2018-04-27T13:06:57.973Z,1.90
2018-04-27T13:07:59.822Z,1.90
2018-04-27T13:08:58.383Z,2.00
2018-04-27T13:09:58.475Z,1.70
2018-04-27T13:11:00.258Z,1.70
2018-04-27T13:12:00.761Z,2.10
2018-04-27T13:12:59.086Z,1.60
2018-04-27T13:14:00.302Z,1.80
2018-04-27T13:15:01.353Z,1.70
2018-04-27T13:16:02.248Z,1.90
2018-04-27T13:17:01.754Z,1.80
2018-04-27T13:17:59.984Z,1.80
2018-04-27T13:19:01.838Z,1.80
2018-04-27T13:20:01.417Z,1.80
2018-04-27T13:21:01.537Z,1.90